createdAt,value
2018-02-12T00:00:38.372Z,7.53
2018-02-12T00:03:06.661Z,9.73
2018-02-12T00:05:34.918Z,9.13
2018-02-12T00:08:03.493Z,10.97
2018-02-12T00:10:31.777Z,13.13
2018-02-12T00:13:00.068Z,5.60
2018-02-12T00:15:28.688Z,6.63
2018-02-12T00:17:57.030Z,6.77
2018-02-12T00:20:25.288Z,7.50
2018-02-12T00:22:53.857Z,8.30
2018-02-12T00:25:22.137Z,10.30
2018-02-12T00:27:51.168Z,5.70
2018-02-12T00:30:19.472Z,8.60
2018-02-12T00:32:47.743Z,6.00
2018-02-12T00:35:16.448Z,7.20
2018-02-12T00:37:44.714Z,5.73
2018-02-12T00:40:12.969Z,8.47
2018-02-12T00:42:41.268Z,9.17
2018-02-12T00:45:09.534Z,6.07
2018-02-12T00:47:38.091Z,6.30
2018-02-12T00:50:06.380Z,6.27
2018-02-12T00:52:34.632Z,9.63
2018-02-12T00:55:03.416Z,4.65
2018-02-12T00:57:31.691Z,5.82
2018-02-12T01:00:01.024Z,8.50
2018-02-12T01:02:30.060Z,6.67
2018-02-12T01:04:58.337Z,6.93
2018-02-12T01:07:26.641Z,5.57
2018-02-12T01:09:55.685Z,7.20
2018-02-12T01:12:24.324Z,8.93
2018-02-12T01:14:53.360Z,5.13
2018-02-12T01:17:21.635Z,7.37
2018-02-12T01:19:49.937Z,4.80
2018-02-12T01:22:18.408Z,4.33
2018-02-12T01:24:46.962Z,5.07
2018-02-12T01:27:15.216Z,5.93
2018-02-12T01:29:44.360Z,7.40
2018-02-12T01:32:12.661Z,5.73
2018-02-12T01:34:41.715Z,4.43
2018-02-12T01:37:10.302Z,4.80
2018-02-12T01:39:38.577Z,5.83
2018-02-12T01:42:06.828Z,5.73
2018-02-12T01:44:35.446Z,8.07
2018-02-12T01:47:03.725Z,5.60
2018-02-12T01:49:31.983Z,9.90
2018-02-12T01:52:00.736Z,6.50
2018-02-12T01:54:29.015Z,6.73
2018-02-12T01:56:57.304Z,5.00
2018-02-12T01:59:26.363Z,4.70
2018-02-12T02:01:54.634Z,6.13
2018-02-12T02:04:23.269Z,6.03
2018-02-12T02:06:51.532Z,4.10
2018-02-12T02:09:19.821Z,5.00
2018-02-12T02:11:48.113Z,4.90
2018-02-12T02:14:16.378Z,4.50
2018-02-12T02:16:45.725Z,7.43
2018-02-12T02:19:14.024Z,5.80
2018-02-12T02:21:42.281Z,5.10
2018-02-12T02:24:10.576Z,0.60
2018-02-12T02:26:38.849Z,0.70
2018-02-12T02:29:07.546Z,0.60
2018-02-12T02:31:35.816Z,0.70
2018-02-12T02:34:04.094Z,0.60
2018-02-12T02:39:29.927Z,0.70
2018-02-12T02:41:58.189Z,0.60
2018-02-12T02:44:26.453Z,0.60
2018-02-12T02:46:54.824Z,0.73
2018-02-12T02:49:23.113Z,0.60
2018-02-12T02:51:51.665Z,0.90
2018-02-12T02:54:20.741Z,0.80
2018-02-12T02:56:48.989Z,0.70
2018-02-12T02:59:17.284Z,0.80
2018-02-12T03:01:45.596Z,4.30
2018-02-12T03:04:14.323Z,0.60
2018-02-12T03:06:42.647Z,0.70
2018-02-12T03:09:10.904Z,0.70
2018-02-12T03:11:39.584Z,1.30
2018-02-12T03:14:07.896Z,1.53
2018-02-12T03:16:36.978Z,0.70
2018-02-12T03:19:06.572Z,0.73
2018-02-12T03:21:34.850Z,0.60
2018-02-12T03:24:03.884Z,1.30
2018-02-12T03:26:33.031Z,0.70
2018-02-12T03:29:01.302Z,0.83
2018-02-12T03:31:29.993Z,0.60
2018-02-12T03:33:58.233Z,3.17
2018-02-12T03:36:27.340Z,0.63
2018-02-12T03:38:56.379Z,0.60
2018-02-12T03:41:24.628Z,0.60
2018-02-12T03:43:53.316Z,0.70
2018-02-12T03:46:21.563Z,4.50
2018-02-12T03:48:50.618Z,5.23
2018-02-12T03:51:18.895Z,5.60
2018-02-12T03:53:47.549Z,0.80
2018-02-12T03:56:16.093Z,2.20
2018-02-12T03:58:45.121Z,0.80
2018-02-12T04:01:13.391Z,0.87
2018-02-12T04:03:41.679Z,1.03
2018-02-12T04:06:09.952Z,2.93
2018-02-12T04:08:38.502Z,0.80
2018-02-12T04:11:06.782Z,0.80
2018-02-12T04:13:35.105Z,0.80
2018-02-12T04:16:03.394Z,0.70
2018-02-12T04:18:32.107Z,0.70
2018-02-12T04:21:00.400Z,0.80
2018-02-12T04:23:28.680Z,0.70
2018-02-12T04:25:56.953Z,0.70
2018-02-12T04:28:25.227Z,2.57
2018-02-12T04:30:53.524Z,0.80
2018-02-12T04:33:22.588Z,0.60
2018-02-12T04:35:50.886Z,0.60
2018-02-12T04:38:19.176Z,2.80
2018-02-12T04:40:48.205Z,0.70
2018-02-12T04:43:16.489Z,0.60
2018-02-12T04:45:44.771Z,0.70
2018-02-12T04:48:13.082Z,0.70
2018-02-12T04:50:41.376Z,0.67
2018-02-12T04:53:10.435Z,0.60
2018-02-12T04:55:38.708Z,0.60
2018-02-12T04:58:06.984Z,0.60
2018-02-12T05:00:36.055Z,2.43
2018-02-12T05:03:04.386Z,0.70
2018-02-12T05:05:32.665Z,0.70
2018-02-12T05:08:00.924Z,0.60
2018-02-12T05:10:29.503Z,2.60
2018-02-12T05:12:57.760Z,3.83
2018-02-12T05:15:26.032Z,0.80
2018-02-12T05:17:54.379Z,0.60
2018-02-12T05:20:22.717Z,1.07
2018-02-12T05:22:51.017Z,0.70
2018-02-12T05:25:19.294Z,0.90
2018-02-12T05:27:47.608Z,0.70
2018-02-12T05:30:16.630Z,2.37
2018-02-12T05:32:45.717Z,2.57
2018-02-12T05:35:14.016Z,0.70
2018-02-12T05:37:42.297Z,0.60
2018-02-12T05:40:10.601Z,0.70
2018-02-12T05:42:38.886Z,2.70
2018-02-12T05:45:07.182Z,0.70
2018-02-12T05:47:36.201Z,0.60
2018-02-12T05:50:05.465Z,0.70
2018-02-12T05:52:33.727Z,0.70
2018-02-12T05:55:02.008Z,1.03
2018-02-12T05:57:30.290Z,0.60
2018-02-12T05:59:58.564Z,0.60
2018-02-12T06:02:26.885Z,0.80
2018-02-12T06:04:55.181Z,2.65
2018-02-12T06:07:23.487Z,0.70
2018-02-12T06:09:51.758Z,0.60
2018-02-12T06:12:20.082Z,0.70
2018-02-12T06:14:49.117Z,2.57
2018-02-12T06:17:17.375Z,0.60
2018-02-12T06:19:45.672Z,0.60
2018-02-12T06:22:13.925Z,0.60
2018-02-12T06:24:42.237Z,3.03
2018-02-12T06:27:10.489Z,0.93
2018-02-12T06:29:39.268Z,0.70
2018-02-12T06:32:08.280Z,0.60
2018-02-12T06:34:36.588Z,0.97
2018-02-12T06:37:04.912Z,2.57
2018-02-12T06:39:33.199Z,0.80
2018-02-12T06:42:01.495Z,0.80
2018-02-12T06:44:29.789Z,1.37
2018-02-12T06:46:58.079Z,2.60
2018-02-12T06:49:26.359Z,0.80
2018-02-12T06:51:54.608Z,6.93
2018-02-12T06:54:22.926Z,6.33
2018-02-12T06:56:51.185Z,6.27
2018-02-12T06:59:19.492Z,6.33
2018-02-12T07:01:48.541Z,4.07
2018-02-12T07:04:16.853Z,5.03
2018-02-12T07:06:45.126Z,4.47
2018-02-12T07:09:14.191Z,6.50
2018-02-12T07:11:42.450Z,4.37
2018-02-12T07:14:10.714Z,3.20
2018-02-12T07:16:39.814Z,12.90
2018-02-12T07:19:08.078Z,6.63
2018-02-12T07:21:37.173Z,6.17
2018-02-12T07:24:06.194Z,3.67
2018-02-12T07:26:34.509Z,4.30
2018-02-12T07:29:02.786Z,4.07
2018-02-12T07:31:31.050Z,5.10
2018-02-12T07:33:59.333Z,4.97
2018-02-12T07:36:27.601Z,4.43
2018-02-12T07:38:56.231Z,5.27
2018-02-12T07:41:24.477Z,6.17
2018-02-12T07:43:52.745Z,5.50
2018-02-12T07:46:21.029Z,12.13
2018-02-12T07:48:49.300Z,10.30
2018-02-12T07:51:17.605Z,10.47
2018-02-12T07:53:45.868Z,8.30
2018-02-12T07:56:14.174Z,8.23
2018-02-12T07:58:42.419Z,5.60
2018-02-12T08:01:11.003Z,10.03
2018-02-12T08:03:39.261Z,7.63
2018-02-12T08:06:07.590Z,5.20
2018-02-12T08:08:35.872Z,8.23
2018-02-12T08:11:04.132Z,6.37
2018-02-12T08:13:32.426Z,7.90
2018-02-12T08:16:00.690Z,12.33
2018-02-12T08:18:29.423Z,4.70
2018-02-12T08:20:57.640Z,9.10
2018-02-12T08:23:26.716Z,7.80
2018-02-12T08:25:55.060Z,5.87
2018-02-12T08:28:23.360Z,11.83
2018-02-12T08:30:51.656Z,8.30
2018-02-12T08:33:19.944Z,5.83
2018-02-12T08:35:48.217Z,8.67
2018-02-12T08:38:17.192Z,4.03
2018-02-12T08:40:45.489Z,6.50
2018-02-12T08:43:13.765Z,5.43
2018-02-12T08:45:42.055Z,6.47
2018-02-12T08:48:10.351Z,9.63
2018-02-12T08:50:38.658Z,4.53
2018-02-12T08:53:07.712Z,5.43
2018-02-12T08:55:35.966Z,7.97
2018-02-12T08:58:04.261Z,4.67
2018-02-12T09:00:32.527Z,6.13
2018-02-12T09:03:00.823Z,4.13
2018-02-12T09:05:29.085Z,6.13
2018-02-12T09:07:57.365Z,3.63
2018-02-12T09:10:25.637Z,6.90
2018-02-12T09:12:53.908Z,7.13
2018-02-12T09:15:22.205Z,5.63
2018-02-12T09:17:50.478Z,5.27
2018-02-12T09:20:18.756Z,5.67
2018-02-12T09:22:47.091Z,4.00
2018-02-12T09:25:16.105Z,2.80
2018-02-12T09:27:44.405Z,8.40
2018-02-12T09:30:12.666Z,5.13
2018-02-12T09:32:40.948Z,4.53
2018-02-12T09:35:09.224Z,4.10
2018-02-12T09:37:37.505Z,3.30
2018-02-12T09:40:05.791Z,4.20
2018-02-12T09:42:34.064Z,4.33
2018-02-12T09:45:02.441Z,4.43
2018-02-12T09:47:30.694Z,4.00
2018-02-12T09:49:59.785Z,4.10
2018-02-12T09:52:28.040Z,7.13
2018-02-12T09:54:56.605Z,6.70
2018-02-12T09:57:24.875Z,3.70
2018-02-12T09:59:53.268Z,7.27
2018-02-12T10:02:21.544Z,4.80
2018-02-12T10:04:49.875Z,4.73
2018-02-12T10:07:18.160Z,5.17
2018-02-12T10:09:46.441Z,3.80
2018-02-12T10:12:15.153Z,5.70
2018-02-12T10:14:43.445Z,4.13
2018-02-12T10:17:11.720Z,3.70
2018-02-12T10:19:40.036Z,5.37
2018-02-12T10:22:08.377Z,5.60
2018-02-12T10:24:36.677Z,4.33
2018-02-12T10:27:05.005Z,3.77
2018-02-12T10:29:33.282Z,4.53
2018-02-12T10:32:01.537Z,7.30
2018-02-12T10:34:29.816Z,5.33
2018-02-12T10:37:01.588Z,4.20
2018-02-12T10:39:29.863Z,3.80
2018-02-12T10:41:58.163Z,3.37
2018-02-12T10:44:26.437Z,6.63
2018-02-12T10:46:54.748Z,5.47
2018-02-12T10:49:23.780Z,4.00
2018-02-12T10:51:52.074Z,2.70
2018-02-12T10:54:20.363Z,4.83
2018-02-12T10:56:48.865Z,3.67
2018-02-12T10:59:17.161Z,4.67
2018-02-12T11:01:45.433Z,3.10
2018-02-12T11:04:14.496Z,7.53
2018-02-12T11:06:42.768Z,4.27
2018-02-12T11:09:11.053Z,10.37
2018-02-12T11:11:39.365Z,3.97
2018-02-12T11:14:08.443Z,5.97
2018-02-12T11:16:36.714Z,6.10
2018-02-12T11:19:04.978Z,3.53
2018-02-12T11:21:33.305Z,3.80
2018-02-12T11:24:02.339Z,4.27
2018-02-12T11:26:30.620Z,5.33
2018-02-12T11:28:58.887Z,3.80
2018-02-12T11:31:27.515Z,5.33
2018-02-12T11:33:55.798Z,7.23
2018-02-12T11:36:24.272Z,6.30
2018-02-12T11:38:53.377Z,8.77
2018-02-12T11:41:21.668Z,3.77
2018-02-12T11:43:49.965Z,5.93
2018-02-12T11:46:18.999Z,4.53
2018-02-12T11:48:47.307Z,3.63
2018-02-12T11:51:15.579Z,7.30
2018-02-12T11:53:44.121Z,4.40
2018-02-12T11:56:12.404Z,7.50
2018-02-12T11:58:40.743Z,7.17
2018-02-12T12:01:09.008Z,5.17
2018-02-12T12:03:37.302Z,5.30
2018-02-12T12:06:05.577Z,4.70
2018-02-12T12:08:34.634Z,6.80
2018-02-12T12:11:02.945Z,7.50
2018-02-12T12:13:31.221Z,4.40
2018-02-12T12:15:59.550Z,6.03
2018-02-12T12:18:27.863Z,7.67
2018-02-12T12:20:56.184Z,5.30
2018-02-12T12:23:24.650Z,5.47
2018-02-12T12:25:52.937Z,4.97
2018-02-12T12:28:22.002Z,5.67
2018-02-12T12:30:50.339Z,5.80
2018-02-12T12:33:19.072Z,5.23
2018-02-12T12:35:47.337Z,4.63
2018-02-12T12:38:15.597Z,5.53
2018-02-12T12:40:44.033Z,7.93
2018-02-12T12:43:13.072Z,7.17
2018-02-12T12:45:41.372Z,8.53
2018-02-12T12:48:09.643Z,4.73
2018-02-12T12:50:37.994Z,4.63
2018-02-12T12:53:06.273Z,4.73
2018-02-12T12:55:34.585Z,6.13
2018-02-12T12:58:02.857Z,6.60
2018-02-12T13:00:31.262Z,5.07
2018-02-12T13:03:00.320Z,6.60
2018-02-12T13:05:28.614Z,4.83
2018-02-12T13:07:56.918Z,5.57
2018-02-12T13:10:25.197Z,5.10
2018-02-12T13:12:54.269Z,6.80
2018-02-12T13:15:22.540Z,5.47
2018-02-12T13:17:50.854Z,4.90
2018-02-12T13:20:19.903Z,5.33
2018-02-12T13:22:48.182Z,5.07
2018-02-12T13:25:16.576Z,5.57
2018-02-12T13:27:44.815Z,5.50
2018-02-12T13:30:13.143Z,4.93
2018-02-12T13:32:41.417Z,6.20
2018-02-12T13:35:09.781Z,6.47
2018-02-12T13:37:38.130Z,6.40
2018-02-12T13:40:06.394Z,6.20
2018-02-12T13:42:34.698Z,6.40
2018-02-12T13:45:02.995Z,9.13
2018-02-12T13:47:31.292Z,5.93
2018-02-12T13:49:59.745Z,6.67
2018-02-12T13:52:28.036Z,5.90
2018-02-12T13:54:56.327Z,5.80
2018-02-12T13:57:24.935Z,6.97
2018-02-12T13:59:53.189Z,4.70
2018-02-12T14:02:21.464Z,6.37
2018-02-12T14:04:49.769Z,10.03
2018-02-12T14:07:18.830Z,6.27
2018-02-12T14:09:47.124Z,5.27
2018-02-12T14:12:15.396Z,5.43
2018-02-12T14:14:43.722Z,5.33
2018-02-12T14:17:11.993Z,8.50
2018-02-12T14:19:40.281Z,5.03
2018-02-12T14:22:08.553Z,5.07
2018-02-12T14:24:36.822Z,6.03
2018-02-12T14:27:05.149Z,5.77
2018-02-12T14:29:33.411Z,5.77
2018-02-12T14:32:01.820Z,5.67
2018-02-12T14:34:30.095Z,5.43
2018-02-12T14:36:58.418Z,5.47
2018-02-12T14:39:26.843Z,7.77
2018-02-12T14:41:55.083Z,8.60
2018-02-12T14:44:23.393Z,8.40
2018-02-12T14:46:51.651Z,6.93
2018-02-12T14:49:19.955Z,11.03
2018-02-12T14:51:48.220Z,5.90
2018-02-12T14:54:16.518Z,5.90
2018-02-12T14:56:44.776Z,6.20
2018-02-12T14:59:13.051Z,9.47
2018-02-12T15:01:41.355Z,5.70
2018-02-12T15:04:10.248Z,5.17
2018-02-12T15:06:38.540Z,5.63
2018-02-12T15:09:07.583Z,5.67
2018-02-12T15:11:35.902Z,5.47
2018-02-12T15:14:04.184Z,7.33
2018-02-12T15:16:32.475Z,6.50
2018-02-12T15:19:01.511Z,6.20
2018-02-12T15:21:29.796Z,11.03
2018-02-12T15:23:58.084Z,5.80
2018-02-12T15:26:26.370Z,5.73
2018-02-12T15:28:54.664Z,5.90
2018-02-12T15:31:22.937Z,5.83
2018-02-12T15:33:51.231Z,6.37
2018-02-12T15:36:19.526Z,7.50
2018-02-12T15:38:48.696Z,6.00
2018-02-12T15:41:16.957Z,5.67
2018-02-12T15:43:45.229Z,1.17
2018-02-12T15:46:13.516Z,0.80
2018-02-12T15:48:44.007Z,1.67
2018-02-12T15:51:12.429Z,0.70
2018-02-12T15:53:40.698Z,4.40
2018-02-12T15:56:09.249Z,1.17
2018-02-12T15:58:37.525Z,1.10
2018-02-12T16:01:05.800Z,2.57
2018-02-12T16:03:34.860Z,0.70
2018-02-12T16:06:03.145Z,1.00
2018-02-12T16:08:31.438Z,0.80
2018-02-12T16:10:59.717Z,0.80
2018-02-12T16:13:28.006Z,3.00
2018-02-12T16:15:57.796Z,3.80
2018-02-12T16:18:26.864Z,3.43
2018-02-12T16:20:55.642Z,1.90
2018-02-12T16:23:23.979Z,0.80
2018-02-12T16:25:52.993Z,3.67
2018-02-12T16:28:21.297Z,2.83
2018-02-12T16:30:49.558Z,1.10
2018-02-12T16:33:17.860Z,1.67
2018-02-12T16:35:46.172Z,0.70
2018-02-12T16:38:14.437Z,0.70
2018-02-12T16:40:42.734Z,0.80
2018-02-12T16:43:11.774Z,0.70
2018-02-12T16:45:40.094Z,0.70
2018-02-12T16:48:09.138Z,2.27
2018-02-12T16:50:37.963Z,0.70
2018-02-12T16:53:06.258Z,0.90
2018-02-12T16:55:34.584Z,0.70
2018-02-12T16:58:02.918Z,4.53
2018-02-12T17:00:31.180Z,0.80
2018-02-12T17:02:59.543Z,1.23
2018-02-12T17:05:27.824Z,0.90
2018-02-12T17:07:56.197Z,0.70
2018-02-12T17:10:24.528Z,0.60
2018-02-12T17:12:52.817Z,0.70
2018-02-12T17:15:21.204Z,0.80
2018-02-12T17:17:51.457Z,0.70
2018-02-12T17:20:19.788Z,3.03
2018-02-12T17:22:48.111Z,1.93
2018-02-12T17:25:16.408Z,0.80
2018-02-12T17:27:44.755Z,0.70
2018-02-12T17:30:13.524Z,2.97
2018-02-12T17:32:41.825Z,0.60
2018-02-12T17:35:10.160Z,0.70
2018-02-12T17:37:38.502Z,0.70
2018-02-12T17:40:07.048Z,0.68
2018-02-12T17:42:35.355Z,0.80
2018-02-12T17:45:03.652Z,0.80
2018-02-12T17:47:32.047Z,0.77
2018-02-12T17:50:00.386Z,2.00
2018-02-12T17:52:28.881Z,3.87
2018-02-12T17:54:57.301Z,0.83
2018-02-12T17:57:25.557Z,0.80
2018-02-12T17:59:53.885Z,0.73
2018-02-12T18:02:22.215Z,2.43
2018-02-12T18:04:52.474Z,0.80
2018-02-12T18:07:20.821Z,0.80
2018-02-12T18:09:49.157Z,0.80
2018-02-12T18:12:17.520Z,0.70
2018-02-12T18:14:47.671Z,0.70
2018-02-12T18:17:16.016Z,0.63
2018-02-12T18:19:44.288Z,0.70
2018-02-12T18:22:13.437Z,1.10
2018-02-12T18:24:42.642Z,3.97
2018-02-12T18:27:10.923Z,0.70
2018-02-12T18:29:39.218Z,0.70
2018-02-12T18:32:07.529Z,1.07
2018-02-12T18:34:35.865Z,1.60
2018-02-12T18:37:04.157Z,0.80
2018-02-12T18:39:33.382Z,0.70
2018-02-12T18:42:02.411Z,0.63
2018-02-12T18:44:30.771Z,0.70
2018-02-12T18:46:59.067Z,0.70
2018-02-12T18:49:27.361Z,0.70
2018-02-12T18:51:55.685Z,0.70
2018-02-12T18:54:24.730Z,6.40
2018-02-12T18:56:53.098Z,10.63
2018-02-12T18:59:21.372Z,5.50
2018-02-12T19:01:49.723Z,9.60
2018-02-12T19:04:18.768Z,4.60
2018-02-12T19:06:47.731Z,13.97
2018-02-12T19:09:16.059Z,8.70
2018-02-12T19:11:44.363Z,5.57
2018-02-12T19:14:13.222Z,5.17
2018-02-12T19:16:41.518Z,10.17
2018-02-12T19:19:10.604Z,8.90
2018-02-12T19:21:38.907Z,11.17
2018-02-12T19:24:07.563Z,9.57
2018-02-12T19:26:35.873Z,12.70
2018-02-12T19:29:04.934Z,10.90
2018-02-12T19:31:33.290Z,11.23
2018-02-12T19:34:01.680Z,10.83
2018-02-12T19:36:30.005Z,9.83
2018-02-12T19:38:58.314Z,10.90
2018-02-12T19:41:26.638Z,10.67
2018-02-12T19:43:54.926Z,12.80
2018-02-12T19:46:24.059Z,10.30
2018-02-12T19:48:52.346Z,11.00
2018-02-12T19:51:20.677Z,10.50
2018-02-12T19:53:49.055Z,7.33
2018-02-12T19:56:17.317Z,10.27
2018-02-12T19:58:45.702Z,12.37
2018-02-12T20:01:14.001Z,11.17
2018-02-12T20:03:43.654Z,10.00
2018-02-12T20:06:11.938Z,0.97
2018-02-12T20:08:40.214Z,0.68
2018-02-12T20:11:09.350Z,0.70
2018-02-12T20:13:37.618Z,0.80
2018-02-12T20:16:05.950Z,0.90
2018-02-12T20:18:34.230Z,2.43
2018-02-12T20:21:02.545Z,1.10
2018-02-12T20:23:31.647Z,1.00
2018-02-12T20:26:00.021Z,1.33
2018-02-12T20:28:28.305Z,0.70
2018-02-12T20:30:56.618Z,0.70
2018-02-12T20:33:26.536Z,4.97
2018-02-12T20:35:55.093Z,0.90
2018-02-12T20:38:23.472Z,0.70
2018-02-12T20:40:51.824Z,0.80
2018-02-12T20:43:21.218Z,0.73
2018-02-12T20:45:49.536Z,0.60
2018-02-12T20:48:18.646Z,0.70
2018-02-12T20:50:47.002Z,0.77
2018-02-12T20:53:15.388Z,0.70
2018-02-12T20:55:43.704Z,1.87
2018-02-12T20:58:12.002Z,1.48
2018-02-12T21:00:43.365Z,1.23
2018-02-12T21:03:14.577Z,6.15
2018-02-12T21:05:43.401Z,1.60
2018-02-12T21:08:12.655Z,0.70
2018-02-12T21:10:41.878Z,0.70
2018-02-12T21:13:10.345Z,1.10
2018-02-12T21:18:48.137Z,0.90
2018-02-12T21:21:16.412Z,0.67
2018-02-12T21:23:45.174Z,1.00
2018-02-12T21:26:13.623Z,0.90
2018-02-12T21:28:43.534Z,0.60
2018-02-12T21:31:11.871Z,4.07
2018-02-12T21:33:40.178Z,0.70
2018-02-12T21:36:09.653Z,0.87
2018-02-12T21:38:39.527Z,0.70
2018-02-12T21:41:07.852Z,1.10
2018-02-12T21:43:36.269Z,0.70
2018-02-12T21:46:04.627Z,0.70
2018-02-12T21:48:33.673Z,0.80
2018-02-12T21:51:02.453Z,1.17
2018-02-12T21:53:30.810Z,0.80
2018-02-12T21:55:59.958Z,1.03
2018-02-12T21:58:28.282Z,1.00
2018-02-12T22:00:56.561Z,0.90
2018-02-12T22:03:24.876Z,4.70
2018-02-12T22:05:53.170Z,0.70
2018-02-12T22:08:21.482Z,0.80
2018-02-12T22:10:49.744Z,0.80
2018-02-12T22:13:18.018Z,0.90
2018-02-12T22:15:46.381Z,0.80
2018-02-12T22:18:14.761Z,0.60
2018-02-12T22:20:43.060Z,0.80
2018-02-12T22:23:12.029Z,1.02
2018-02-12T22:25:40.343Z,0.90
2018-02-12T22:28:09.389Z,0.70
2018-02-12T22:30:37.703Z,0.77
2018-02-12T22:33:05.974Z,0.80
2018-02-12T22:35:34.299Z,0.70
2018-02-12T22:38:02.698Z,0.70
2018-02-12T22:40:31.037Z,0.73
2018-02-12T22:43:00.830Z,0.80
2018-02-12T22:45:29.140Z,0.70
2018-02-12T22:47:58.219Z,0.70
2018-02-12T22:50:26.500Z,0.63
2018-02-12T22:52:54.765Z,0.70
2018-02-12T22:55:23.090Z,0.80
2018-02-12T22:57:51.367Z,0.80
2018-02-12T23:00:19.677Z,0.80
2018-02-12T23:02:47.973Z,0.70
2018-02-12T23:05:16.296Z,2.85
2018-02-12T23:07:44.609Z,0.90
2018-02-12T23:10:12.948Z,0.70
2018-02-12T23:12:41.307Z,1.25
2018-02-12T23:15:15.516Z,0.70
2018-02-12T23:17:43.794Z,0.60
2018-02-12T23:20:13.193Z,0.75
2018-02-12T23:22:41.554Z,0.95
2018-02-12T23:25:09.897Z,0.75
2018-02-12T23:27:38.189Z,0.68
2018-02-12T23:30:06.460Z,0.70
2018-02-12T23:32:34.767Z,0.70
2018-02-12T23:35:03.041Z,0.70
2018-02-12T23:37:31.424Z,0.70
2018-02-12T23:39:59.718Z,0.65
2018-02-12T23:42:28.002Z,0.67
2018-02-12T23:44:56.337Z,0.60
2018-02-12T23:47:24.664Z,0.80
2018-02-12T23:49:53.807Z,1.30
2018-02-12T23:52:22.866Z,0.60
2018-02-12T23:54:51.939Z,0.70
2018-02-12T23:57:20.224Z,0.70
2018-02-12T23:59:48.528Z,0.90
